Terminal Aerodrome Forecast
Issued by NWS Kansas City/Pleasant Hill, MO

Home | Current Version | Previous Version | Graphics & Text | Print | Product List | Glossary On
Versions: 1 2 3 4 5 6 7 8 9 10 11 12
000
FTUS43 KEAX 270300 AAB
TAFMCI
TAF AMD
KMCI 270306Z 2703/2724 33005KT P6SM -RA SCT015 OVC025
     FM270400 32009KT 5SM -RA BR OVC008
     FM270700 30012KT P6SM OVC009
     FM271700 31011KT P6SM BKN015
     FM272000 31009KT P6SM SCT025=

USA.gov is the U.S. government's official web portal to all federal, state and local government web resources and services.